LiveATC.Net - Listen to live air traffic control over the Internet!


ICAO: LTBA  IATA: ISL   Airport: Ataturk Airport
City: Istanbul
Country: Turkey   Continent: Europe
LTBA METAR Weather: LTBA 261250Z 05011KT 360V090 9999 FEW040 20/07 Q1018 NOSIG
LTBA Flight Activity (FlightAware)
LTBA Webcam:  (Airport Webcams) 

LTBA Gnd/Twr/App
Feed Status: UP   Listeners: 4
Listen in your browser - HTML5 player (in browser, HTML5)
Click here to listen with your own player (launches your MP3 player)
Archive Access: LTBA Gnd/Twr/App
FacilityFrequency
Istanbul Approach126.425
Istanbul Ground121.800
Istanbul Tower118.100

NOTICE

Unauthorized use prohibited. See LiveATC.net Terms of Service


Airport/ARTCC Code
Frequency Search
(e.g., 124.400, 128.75)
Site-wide search
 


Browse Feeds
Top 50 Feeds
Coverage Map
Bad Weather Areas

LiveATC FAQ
Offer LiveATC feed
Contact LiveATC.net
Press Inquiries

LiveATC on iPhone
LiveATC on Android

Windows Phone
Windows 8/10

LiveATC Mobile
(Mobile browser)

ATC Audio Archives
Interesting Recordings

LiveATC Forums


Home Page
About LiveATC.net
Make a Donation
Terms of Use
Privacy Policy

Canadian Air Freqs

AIRMETs/SIGMETs

FAA Airport Status
Nat'l Airspace Status
Arrival Demand Charts


Server Software By:
Icecast.org
Liquidsoap